createdAt,value
2022-08-09T00:00:23.901Z,102580.34
2022-08-09T00:02:52.625Z,102582.09
2022-08-09T00:06:19.074Z,102592.75
2022-08-09T00:08:31.294Z,102585.66
2022-08-09T00:11:06.054Z,102594.47
2022-08-09T00:13:49.993Z,102594.44
2022-08-09T00:16:26.223Z,102584.69
2022-08-09T00:19:09.581Z,102589.09
2022-08-09T00:21:55.558Z,102597.94
2022-08-09T00:24:27.469Z,102601.50
2022-08-09T00:26:57.605Z,102598.88
2022-08-09T00:30:16.093Z,102603.31
2022-08-09T00:32:26.665Z,102601.50
2022-08-09T00:34:55.979Z,102603.25
2022-08-09T00:37:24.133Z,102605.91
2022-08-09T00:40:12.570Z,102608.56
2022-08-09T00:44:15.692Z,102607.69
2022-08-09T00:45:30.503Z,102605.03
2022-08-09T00:48:03.458Z,102597.06
2022-08-09T00:50:31.674Z,102610.31
2022-08-09T00:52:59.999Z,102609.44
2022-08-09T00:56:03.969Z,102606.75
2022-08-09T00:58:27.812Z,102605.00
2022-08-09T01:01:00.167Z,102597.03
2022-08-09T01:03:45.502Z,102608.50
2022-08-09T01:06:22.201Z,102607.59
2022-08-09T01:09:06.188Z,102604.91
2022-08-09T01:11:56.957Z,102611.13
2022-08-09T01:14:31.657Z,102577.44
2022-08-09T01:17:10.906Z,102612.88
2022-08-09T01:19:57.121Z,102619.06
2022-08-09T01:23:03.013Z,102615.50
2022-08-09T01:25:53.995Z,102618.09
2022-08-09T01:28:26.106Z,102626.06
2022-08-09T01:30:59.970Z,102623.41
2022-08-09T01:33:31.214Z,102626.03
2022-08-09T01:36:04.892Z,102624.28
2022-08-09T01:38:38.479Z,102626.03
2022-08-09T01:41:16.295Z,102622.47
2022-08-09T01:43:51.028Z,102622.47
2022-08-09T01:46:24.655Z,102618.84
2022-08-09T01:48:59.944Z,102622.41
2022-08-09T01:51:32.440Z,102620.69
2022-08-09T01:54:04.442Z,102619.78
2022-08-09T01:56:34.476Z,102622.47
2022-08-09T01:59:11.649Z,102626.03
2022-08-09T02:02:00.380Z,102626.13
2022-08-09T02:04:33.914Z,102619.06
2022-08-09T02:07:18.315Z,102624.31
2022-08-09T02:10:06.787Z,102629.56
2022-08-09T02:12:36.851Z,102629.56
2022-08-09T02:15:11.818Z,102623.34
2022-08-09T02:18:00.573Z,102631.34
2022-08-09T02:20:37.328Z,102624.28
2022-08-09T02:23:09.616Z,102627.75
2022-08-09T02:25:42.335Z,102629.56
2022-08-09T02:28:21.380Z,102633.97
2022-08-09T02:30:59.903Z,102631.28
2022-08-09T02:33:38.265Z,102639.25
2022-08-09T02:36:23.659Z,102615.25
2022-08-09T02:38:58.147Z,102631.19
2022-08-09T02:41:31.959Z,102637.41
2022-08-09T02:44:10.389Z,102632.88
2022-08-09T02:46:53.163Z,102634.59
2022-08-09T02:49:38.386Z,102631.94
2022-08-09T02:52:10.933Z,102629.25
2022-08-09T02:54:54.281Z,102634.59
2022-08-09T02:57:24.067Z,102617.75
2022-08-09T03:00:25.374Z,102639.88
2022-08-09T03:02:59.975Z,102643.38
2022-08-09T03:05:29.826Z,102644.34
2022-08-09T03:08:05.665Z,102646.13
2022-08-09T03:10:35.925Z,102623.88
2022-08-09T03:13:08.536Z,102650.47
2022-08-09T03:16:04.650Z,102646.09
2022-08-09T03:18:30.674Z,102639.97
2022-08-09T03:21:01.318Z,102633.84
2022-08-09T03:23:29.836Z,102632.16
2022-08-09T03:26:03.667Z,102630.28
2022-08-09T03:28:37.967Z,102634.63
2022-08-09T03:31:22.613Z,102647.03
2022-08-09T03:33:54.743Z,102646.22
2022-08-09T03:36:27.718Z,102649.78
2022-08-09T03:38:57.578Z,102645.41
2022-08-09T03:41:30.143Z,102629.25
2022-08-09T03:44:15.478Z,102661.09
2022-08-09T03:46:44.461Z,102654.06
2022-08-09T03:49:19.238Z,102662.97
2022-08-09T03:51:56.251Z,102654.13
2022-08-09T03:54:31.150Z,102657.75
2022-08-09T03:57:02.295Z,102659.50
2022-08-09T03:59:53.759Z,102663.94
2022-08-09T04:02:26.492Z,102661.22
2022-08-09T04:04:58.986Z,102671.75
2022-08-09T04:07:33.839Z,102671.72
2022-08-09T04:10:18.214Z,102677.00
2022-08-09T04:12:51.335Z,102678.78
2022-08-09T04:15:42.806Z,102688.50
2022-08-09T04:18:18.075Z,102676.13
2022-08-09T04:20:49.591Z,102682.31
2022-08-09T04:23:24.581Z,102671.72
2022-08-09T04:25:54.591Z,102653.97
2022-08-09T04:28:33.216Z,102687.69
2022-08-09T04:31:05.710Z,102690.41
2022-08-09T04:33:52.281Z,102689.63
2022-08-09T04:36:24.506Z,102690.41
2022-08-09T04:38:52.885Z,102671.81
2022-08-09T04:41:24.009Z,102680.66
2022-08-09T04:44:05.856Z,102686.88
2022-08-09T04:46:37.688Z,102675.41
2022-08-09T04:49:40.666Z,102677.28
2022-08-09T04:52:21.965Z,102671.94
2022-08-09T04:54:56.340Z,102669.31
2022-08-09T04:57:25.411Z,102674.59
2022-08-09T04:59:55.913Z,102663.09
2022-08-09T05:02:27.473Z,102679.16
2022-08-09T05:04:56.249Z,102687.97
2022-08-09T05:07:29.091Z,102668.41
2022-08-09T05:10:01.763Z,102682.69
2022-08-09T05:12:33.105Z,102683.63
2022-08-09T05:15:03.579Z,102690.72
2022-08-09T05:18:38.427Z,102686.28
2022-08-09T05:20:29.589Z,102679.28
2022-08-09T05:23:53.796Z,102665.97
2022-08-09T05:25:50.872Z,102672.19
2022-08-09T05:28:20.585Z,102684.63
2022-08-09T05:30:51.621Z,102682.00
2022-08-09T05:33:19.985Z,102681.16
2022-08-09T05:35:57.060Z,102677.63
2022-08-09T05:38:27.966Z,102675.88
2022-08-09T05:40:56.332Z,102685.66
2022-08-09T05:43:24.419Z,102682.09
2022-08-09T05:45:57.959Z,102682.13
2022-08-09T05:48:32.711Z,102676.78
2022-08-09T05:51:42.303Z,102685.66
2022-08-09T05:53:57.259Z,102690.06
2022-08-09T05:56:54.447Z,102690.13
2022-08-09T05:59:23.509Z,102691.88
2022-08-09T06:01:51.833Z,102697.25
2022-08-09T06:04:34.871Z,102683.09
2022-08-09T06:07:03.948Z,102688.44
2022-08-09T06:09:55.219Z,102692.88
2022-08-09T06:12:21.747Z,102695.53
2022-08-09T06:14:54.619Z,102697.31
2022-08-09T06:17:23.454Z,102702.66
2022-08-09T06:19:51.548Z,102695.56
2022-08-09T06:22:23.525Z,102686.69
2022-08-09T06:24:58.817Z,102702.63
2022-08-09T06:27:42.421Z,102690.22
2022-08-09T06:30:14.092Z,102693.78
2022-08-09T06:33:13.223Z,102699.09
2022-08-09T06:35:55.814Z,102707.94
2022-08-09T06:38:19.732Z,102702.66
2022-08-09T06:41:01.821Z,102699.13
2022-08-09T06:43:34.380Z,102699.09
2022-08-09T06:46:05.164Z,102700.84
2022-08-09T06:48:42.726Z,102693.75
2022-08-09T06:51:12.336Z,102697.22
2022-08-09T06:53:42.976Z,102698.97
2022-08-09T06:56:13.591Z,102706.06
2022-08-09T07:00:50.913Z,102698.94
2022-08-09T07:01:53.666Z,102703.34
2022-08-09T07:04:20.048Z,102683.88
2022-08-09T07:06:53.343Z,102714.84
2022-08-09T07:09:55.891Z,102723.66
2022-08-09T07:12:20.104Z,102716.59
2022-08-09T07:14:50.919Z,102729.91
2022-08-09T07:17:21.589Z,102728.91
2022-08-09T07:19:50.813Z,102726.16
2022-08-09T07:22:34.453Z,102726.94
2022-08-09T07:25:05.499Z,102733.09
2022-08-09T07:27:42.450Z,102737.50
2022-08-09T07:30:25.228Z,102741.06
2022-08-09T07:32:54.744Z,102738.44
2022-08-09T07:35:23.772Z,102742.84
2022-08-09T07:37:54.230Z,102733.16
2022-08-09T07:40:37.339Z,102736.69
2022-08-09T07:43:18.064Z,102737.63
2022-08-09T07:45:46.598Z,102746.56
2022-08-09T07:48:25.869Z,102750.09
2022-08-09T07:51:10.074Z,102744.75
2022-08-09T07:54:07.390Z,102748.31
2022-08-09T07:56:38.951Z,102755.41
2022-08-09T07:59:25.708Z,102759.88
2022-08-09T08:02:07.359Z,102767.00
2022-08-09T08:04:38.963Z,102766.97
2022-08-09T08:07:27.013Z,102774.94
2022-08-09T08:10:07.646Z,102782.03
2022-08-09T08:12:40.558Z,102785.53
2022-08-09T08:15:16.758Z,102780.09
2022-08-09T08:17:53.460Z,102789.75
2022-08-09T08:20:27.214Z,102789.59
2022-08-09T08:22:58.591Z,102784.22
2022-08-09T08:25:40.328Z,102786.94
2022-08-09T08:28:15.213Z,102772.72
2022-08-09T08:30:45.446Z,102773.53
2022-08-09T08:33:22.996Z,102763.78
2022-08-09T08:35:59.764Z,102785.13
2022-08-09T08:38:29.146Z,102788.75
2022-08-09T08:40:58.949Z,102785.13
2022-08-09T08:43:27.944Z,102772.72
2022-08-09T08:46:09.926Z,102792.28
2022-08-09T08:48:53.905Z,102778.03
2022-08-09T08:51:23.203Z,102795.63
2022-08-09T08:54:03.120Z,102795.50
2022-08-09T08:56:37.636Z,102795.28
2022-08-09T08:59:19.027Z,102795.22
2022-08-09T09:01:53.264Z,102799.50
2022-08-09T09:04:29.942Z,102802.91
2022-08-09T09:07:09.462Z,102800.94
2022-08-09T09:09:50.267Z,102799.88
2022-08-09T09:12:34.378Z,102798.84
2022-08-09T09:15:05.612Z,102818.13
2022-08-09T09:17:48.385Z,102809.91
2022-08-09T09:20:20.689Z,102815.91
2022-08-09T09:22:57.036Z,102802.19
2022-08-09T09:26:00.963Z,102810.88
2022-08-09T09:29:02.859Z,102805.63
2022-08-09T09:32:04.109Z,102808.00
2022-08-09T09:34:18.370Z,102805.41
2022-08-09T09:36:54.240Z,102799.69
2022-08-09T09:39:42.685Z,102809.56
2022-08-09T09:42:24.460Z,102817.31
2022-08-09T09:44:59.409Z,102817.38
2022-08-09T09:47:28.475Z,102815.94
2022-08-09T09:50:14.130Z,102820.50
2022-08-09T09:52:53.752Z,102816.00
2022-08-09T09:55:27.605Z,102818.50
2022-08-09T09:58:16.647Z,102808.81
2022-08-09T10:00:54.911Z,102813.84
2022-08-09T10:03:40.186Z,102794.69
2022-08-09T10:06:12.827Z,102805.28
2022-08-09T10:08:57.175Z,102808.47
2022-08-09T10:12:00.345Z,102798.69
2022-08-09T10:14:27.270Z,102799.75
2022-08-09T10:17:11.257Z,102801.41
2022-08-09T10:19:45.854Z,102809.47
2022-08-09T10:22:15.886Z,102807.81
2022-08-09T10:24:57.893Z,102801.50
2022-08-09T10:27:38.529Z,102782.38
2022-08-09T10:32:00.075Z,102798.22
2022-08-09T10:33:00.451Z,102759.84
2022-08-09T10:35:32.225Z,102793.38
2022-08-09T10:38:02.573Z,102801.66
2022-08-09T10:40:33.522Z,102808.47
2022-08-09T10:43:03.809Z,102807.53
2022-08-09T10:45:35.637Z,102796.66
2022-08-09T10:48:30.845Z,102803.91
2022-08-09T10:51:12.295Z,102805.28
2022-08-09T10:53:56.460Z,102804.75
2022-08-09T10:56:26.458Z,102792.09
2022-08-09T10:58:55.890Z,102810.34
2022-08-09T11:03:15.241Z,102803.28
2022-08-09T11:04:32.841Z,102797.03
2022-08-09T11:07:57.479Z,102808.53
2022-08-09T11:11:00.867Z,102799.75
2022-08-09T11:13:49.787Z,102792.84
2022-08-09T11:16:37.709Z,102796.66
2022-08-09T11:19:10.518Z,102784.47
2022-08-09T11:21:55.131Z,102801.25
2022-08-09T11:25:08.270Z,102807.59
2022-08-09T11:28:05.636Z,102799.47
2022-08-09T11:30:36.504Z,102802.97
2022-08-09T11:33:13.042Z,102797.13
2022-08-09T11:35:49.891Z,102787.44
2022-08-09T11:38:28.547Z,102787.75
2022-08-09T11:41:37.983Z,102782.09
2022-08-09T11:44:10.005Z,102802.19
2022-08-09T11:46:57.401Z,102798.75
2022-08-09T11:50:54.060Z,102806.19
2022-08-09T11:53:58.972Z,102800.28
2022-08-09T11:56:41.554Z,102796.28
2022-08-09T11:59:14.525Z,102790.16
2022-08-09T12:02:17.487Z,102802.38
2022-08-09T12:04:37.585Z,102798.00
2022-08-09T12:07:08.520Z,102796.56
2022-08-09T12:09:37.327Z,102802.69
2022-08-09T12:12:13.031Z,102794.00
2022-08-09T12:15:07.992Z,102791.53
2022-08-09T12:17:43.519Z,102789.50
2022-08-09T12:20:21.370Z,102797.22
2022-08-09T12:22:55.957Z,102794.56
2022-08-09T12:25:36.722Z,102797.22
2022-08-09T12:29:14.887Z,102795.59
2022-08-09T12:31:11.271Z,102809.06
2022-08-09T12:33:59.442Z,102807.09
2022-08-09T12:36:33.815Z,102811.44
2022-08-09T12:39:04.397Z,102794.69
2022-08-09T12:41:39.740Z,102782.75
2022-08-09T12:44:13.071Z,102794.75
2022-08-09T12:46:49.295Z,102792.56
2022-08-09T12:49:20.962Z,102805.19
2022-08-09T12:52:01.255Z,102803.00
2022-08-09T12:54:31.241Z,102811.16
2022-08-09T12:57:00.256Z,102801.22
2022-08-09T12:59:40.007Z,102800.66
2022-08-09T13:02:23.452Z,102771.06
2022-08-09T13:05:02.661Z,102796.34
2022-08-09T13:07:51.073Z,102802.44
2022-08-09T13:10:20.475Z,102803.72
2022-08-09T13:13:09.455Z,102787.41
2022-08-09T13:15:52.208Z,102792.78
2022-08-09T13:18:27.061Z,102788.19
2022-08-09T13:22:33.417Z,102776.28
2022-08-09T13:24:16.558Z,102785.09
2022-08-09T13:26:37.462Z,102765.06
2022-08-09T13:29:13.087Z,102770.63
2022-08-09T13:32:17.842Z,102769.56
2022-08-09T13:34:47.668Z,102772.41
2022-08-09T13:37:50.770Z,102772.25
2022-08-09T13:41:54.352Z,102775.25
2022-08-09T13:42:54.310Z,102770.81
2022-08-09T13:45:32.225Z,102749.97
2022-08-09T13:48:11.152Z,102778.59
2022-08-09T13:50:40.913Z,102775.78
2022-08-09T13:53:09.705Z,102783.38
2022-08-09T13:55:39.319Z,102787.22
2022-08-09T13:58:11.709Z,102762.34
2022-08-09T14:00:48.333Z,102786.97
2022-08-09T14:04:03.277Z,102784.56
2022-08-09T14:06:25.742Z,102783.69
2022-08-09T14:08:55.883Z,102780.19
2022-08-09T14:11:24.304Z,102776.50
2022-08-09T14:14:22.003Z,102775.75
2022-08-09T14:16:42.344Z,102778.03
2022-08-09T14:19:10.666Z,102753.94
2022-08-09T14:21:40.694Z,102782.66
2022-08-09T14:24:22.407Z,102780.13
2022-08-09T14:27:00.286Z,102790.94
2022-08-09T14:30:34.279Z,102777.78
2022-08-09T14:32:19.885Z,102776.16
2022-08-09T14:35:07.076Z,102775.09
2022-08-09T14:37:41.192Z,102766.06
2022-08-09T14:41:00.315Z,102773.25
2022-08-09T14:43:16.578Z,102774.88
2022-08-09T14:47:00.986Z,102763.00
2022-08-09T14:48:35.741Z,102767.50
2022-08-09T14:51:05.271Z,102760.47
2022-08-09T14:53:38.864Z,102766.00
2022-08-09T14:56:09.063Z,102730.75
2022-08-09T14:58:44.011Z,102753.81
2022-08-09T15:01:13.624Z,102767.84
2022-08-09T15:03:43.879Z,102756.78
2022-08-09T15:06:12.392Z,102751.63
2022-08-09T15:08:44.490Z,102720.69
2022-08-09T15:11:25.098Z,102748.63
2022-08-09T15:13:59.757Z,102755.75
2022-08-09T15:16:32.656Z,102765.41
2022-08-09T15:19:05.682Z,102763.47
2022-08-09T15:21:57.166Z,102773.34
2022-08-09T15:24:32.054Z,102774.97
2022-08-09T15:27:01.026Z,102762.47
2022-08-09T15:30:57.251Z,102767.31
2022-08-09T15:32:29.040Z,102766.69
2022-08-09T15:34:59.923Z,102766.72
2022-08-09T15:37:56.844Z,102752.41
2022-08-09T15:40:31.944Z,102753.38
2022-08-09T15:43:01.860Z,102759.59
2022-08-09T15:45:30.671Z,102752.53
2022-08-09T15:48:28.845Z,102759.97
2022-08-09T15:50:58.723Z,102767.16
2022-08-09T15:54:03.496Z,102743.34
2022-08-09T15:56:29.018Z,102774.53
2022-08-09T15:59:00.265Z,102777.22
2022-08-09T16:01:31.587Z,102764.75
2022-08-09T16:04:13.415Z,102765.66
2022-08-09T16:06:44.504Z,102750.50
2022-08-09T16:09:18.866Z,102763.91
2022-08-09T16:12:02.380Z,102719.63
2022-08-09T16:14:31.646Z,102755.75
2022-08-09T16:17:01.202Z,102754.84
2022-08-09T16:19:29.397Z,102748.00
2022-08-09T16:22:07.499Z,102746.16
2022-08-09T16:24:43.962Z,102731.00
2022-08-09T16:27:26.610Z,102733.69
2022-08-09T16:30:01.164Z,102740.53
2022-08-09T16:32:49.511Z,102736.13
2022-08-09T16:35:19.384Z,102719.44
2022-08-09T16:38:07.154Z,102740.66
2022-08-09T16:40:39.944Z,102736.13
2022-08-09T16:43:11.579Z,102726.44
2022-08-09T16:45:44.207Z,102733.56
2022-08-09T16:48:40.827Z,102735.66
2022-08-09T16:51:08.485Z,102726.84
2022-08-09T16:54:09.111Z,102734.03
2022-08-09T16:56:30.946Z,102727.88
2022-08-09T16:59:01.657Z,102718.94
2022-08-09T17:01:35.626Z,102725.09
2022-08-09T17:04:05.450Z,102716.38
2022-08-09T17:06:47.377Z,102721.78
2022-08-09T17:09:45.216Z,102728.94
2022-08-09T17:12:12.094Z,102723.63
2022-08-09T17:14:46.409Z,102726.28
2022-08-09T17:17:27.499Z,102716.50
2022-08-09T17:20:33.111Z,102714.78
2022-08-09T17:22:49.792Z,102716.72
2022-08-09T17:25:22.054Z,102714.94
2022-08-09T17:27:54.125Z,102719.34
2022-08-09T17:30:25.836Z,102718.38
2022-08-09T17:32:57.682Z,102714.69
2022-08-09T17:35:29.490Z,102705.13
2022-08-09T17:38:02.133Z,102708.78
2022-08-09T17:40:47.323Z,102722.06
2022-08-09T17:43:34.405Z,102725.66
2022-08-09T17:46:08.749Z,102724.03
2022-08-09T17:48:51.848Z,102718.66
2022-08-09T17:51:20.985Z,102740.78
2022-08-09T17:53:51.998Z,102721.06
2022-08-09T17:56:27.172Z,102743.44
2022-08-09T17:58:58.252Z,102727.53
2022-08-09T18:02:03.235Z,102733.81
2022-08-09T18:04:17.836Z,102702.88
2022-08-09T18:06:54.207Z,102734.81
2022-08-09T18:09:40.919Z,102727.84
2022-08-09T18:12:17.386Z,102733.13
2022-08-09T18:14:49.619Z,102729.72
2022-08-09T18:17:27.726Z,102710.22
2022-08-09T18:20:56.209Z,102711.16
2022-08-09T18:23:05.694Z,102744.97
2022-08-09T18:25:52.598Z,102744.97
2022-08-09T18:30:41.056Z,102737.97
2022-08-09T18:31:12.416Z,102735.25
2022-08-09T18:33:46.330Z,102745.03
2022-08-09T18:36:25.873Z,102739.63
2022-08-09T18:39:02.216Z,102733.31
2022-08-09T18:41:34.371Z,102744.75
2022-08-09T18:44:12.803Z,102742.09
2022-08-09T18:46:50.533Z,102741.22
2022-08-09T18:49:42.936Z,102741.28
2022-08-09T18:52:12.653Z,102748.44
2022-08-09T18:54:52.112Z,102719.31
2022-08-09T18:57:22.239Z,102760.13
2022-08-09T19:00:00.163Z,102705.28
2022-08-09T19:02:32.672Z,102755.75
2022-08-09T19:05:14.094Z,102753.19
2022-08-09T19:07:59.333Z,102744.25
2022-08-09T19:10:37.014Z,102736.28
2022-08-09T19:13:22.064Z,102722.97
2022-08-09T19:15:52.950Z,102714.94
2022-08-09T19:18:33.839Z,102708.81
2022-08-09T19:21:10.811Z,102736.38
2022-08-09T19:24:39.577Z,102739.00
2022-08-09T19:26:31.177Z,102732.78
2022-08-09T19:29:01.598Z,102747.97
2022-08-09T19:31:45.210Z,102737.31
2022-08-09T19:34:21.205Z,102756.03
2022-08-09T19:36:52.642Z,102754.25
2022-08-09T19:39:43.842Z,102725.03
2022-08-09T19:42:14.583Z,102741.84
2022-08-09T19:44:43.791Z,102744.53
2022-08-09T19:47:19.782Z,102760.53
2022-08-09T19:50:08.929Z,102765.88
2022-08-09T19:52:49.654Z,102742.84
2022-08-09T19:55:30.769Z,102742.88
2022-08-09T19:58:16.499Z,102759.75
2022-08-09T20:00:46.849Z,102755.31
2022-08-09T20:04:11.676Z,102749.97
2022-08-09T20:06:22.157Z,102725.22
2022-08-09T20:08:56.864Z,102758.84
2022-08-09T20:11:26.745Z,102761.50
2022-08-09T20:13:55.501Z,102752.56
2022-08-09T20:16:35.103Z,102756.19
2022-08-09T20:19:47.824Z,102750.81
2022-08-09T20:21:59.793Z,102749.09
2022-08-09T20:24:33.761Z,102746.38
2022-08-09T20:27:07.965Z,102747.25
2022-08-09T20:29:38.737Z,102720.72
2022-08-09T20:32:31.396Z,102746.44
2022-08-09T20:34:57.357Z,102748.22
2022-08-09T20:37:25.840Z,102742.94
2022-08-09T20:40:24.750Z,102728.72
2022-08-09T20:43:00.315Z,102705.78
2022-08-09T20:46:00.318Z,102733.19
2022-08-09T20:48:29.201Z,102723.50
2022-08-09T20:50:59.689Z,102741.25
2022-08-09T20:53:37.408Z,102739.50
2022-08-09T20:56:19.917Z,102727.09
2022-08-09T20:58:49.024Z,102723.53
2022-08-09T21:01:34.274Z,102713.84
2022-08-09T21:05:48.720Z,102732.44
2022-08-09T21:06:54.561Z,102726.25
2022-08-09T21:09:32.930Z,102725.38
2022-08-09T21:14:43.001Z,102729.78
2022-08-09T21:18:11.126Z,102726.16
2022-08-09T21:20:22.711Z,102732.47
2022-08-09T21:22:55.215Z,102714.72
2022-08-09T21:25:44.135Z,102714.78
2022-08-09T21:28:34.491Z,102718.34
2022-08-09T21:31:16.110Z,102722.78
2022-08-09T21:33:50.721Z,102716.53
2022-08-09T21:36:23.076Z,102718.31
2022-08-09T21:38:57.166Z,102713.03
2022-08-09T21:42:05.076Z,102718.38
2022-08-09T21:44:34.006Z,102705.03
2022-08-09T21:47:05.505Z,102707.72
2022-08-09T21:49:39.228Z,102711.25
2022-08-09T21:52:16.298Z,102703.31
2022-08-09T21:54:56.991Z,102670.56
2022-08-09T21:57:38.788Z,102704.25
2022-08-09T22:00:25.411Z,102699.81
2022-08-09T22:02:58.717Z,102690.03
2022-08-09T22:05:35.935Z,102684.72
2022-08-09T22:08:14.857Z,102690.06
2022-08-09T22:11:04.961Z,102691.81
2022-08-09T22:13:35.421Z,102690.00
2022-08-09T22:16:08.861Z,102686.47
2022-08-09T22:18:38.362Z,102695.34
2022-08-09T22:21:09.541Z,102690.00
2022-08-09T22:23:59.185Z,102700.66
2022-08-09T22:26:34.937Z,102701.56
2022-08-09T22:29:08.826Z,102706.03
2022-08-09T22:31:50.274Z,102701.56
2022-08-09T22:34:26.718Z,102708.63
2022-08-09T22:36:55.339Z,102707.72
2022-08-09T22:39:57.098Z,102705.97
2022-08-09T22:42:21.465Z,102705.97
2022-08-09T22:45:02.411Z,102713.09
2022-08-09T22:48:16.880Z,102710.44
2022-08-09T22:50:31.322Z,102704.25
2022-08-09T22:53:03.923Z,102702.47
2022-08-09T22:56:06.412Z,102702.47
2022-08-09T22:58:32.951Z,102694.50
2022-08-09T23:01:04.085Z,102681.19
2022-08-09T23:04:04.020Z,102675.91
2022-08-09T23:06:35.385Z,102690.97
2022-08-09T23:09:05.870Z,102687.41
2022-08-09T23:11:33.981Z,102684.75
2022-08-09T23:14:03.413Z,102647.50
2022-08-09T23:16:32.750Z,102679.41
2022-08-09T23:19:02.439Z,102678.50
2022-08-09T23:21:35.195Z,102674.91
2022-08-09T23:24:07.243Z,102687.38
2022-08-09T23:26:36.869Z,102688.25
2022-08-09T23:29:05.583Z,102689.16
2022-08-09T23:31:34.095Z,102682.94
2022-08-09T23:34:04.232Z,102674.06
2022-08-09T23:36:32.736Z,102684.72
2022-08-09T23:39:01.164Z,102690.03
2022-08-09T23:41:29.829Z,102684.69
2022-08-09T23:43:59.403Z,102669.66
2022-08-09T23:46:27.962Z,102679.41
2022-08-09T23:48:56.155Z,102693.59
2022-08-09T23:51:25.924Z,102704.25
2022-08-09T23:53:55.490Z,102689.19
2022-08-09T23:56:53.581Z,102698.88
2022-08-09T23:59:20.755Z,102704.25
